Time;durP1;ratioP1;P1;durP2;ratioP2;P2;SDS_P1;SDS_P2;PMS_P1;PMS_P2;Temp;Humidity;BMP_temperature;BMP_pressure;BME280_temperature;BME280_humidity;BME280_pressure;Samples;Min_cycle;Max_cycle;Signal;HPM_P1;HPM_P2
2023/04/05 00:02:28;;;;;;;2.60;0.40;;;;;;;4.77;68.26;95612.00;5053135;28;20490;-58
2023/04/05 00:04:57;;;;;;;1.85;0.77;;;;;;;4.77;68.21;95607.69;5053012;28;20051;-59
2023/04/05 00:07:25;;;;;;;0.40;0.40;;;;;;;4.71;68.04;95609.59;5052854;28;20056;-54
2023/04/05 00:09:53;;;;;;;0.63;0.40;;;;;;;4.61;68.12;95614.22;5053023;28;20049;-62
2023/04/05 00:12:20;;;;;;;0.38;0.38;;;;;;;4.60;68.59;95612.53;5052563;28;20553;-54
2023/04/05 00:14:47;;;;;;;0.45;0.45;;;;;;;4.55;68.73;95612.66;5052970;28;20103;-56
2023/04/05 00:17:14;;;;;;;0.52;0.43;;;;;;;4.51;69.04;95611.88;5053091;28;20441;-55
2023/04/05 00:19:43;;;;;;;0.38;0.30;;;;;;;4.47;69.48;95617.19;5052853;28;20052;-55
2023/04/05 00:22:11;;;;;;;0.38;0.38;;;;;;;4.29;69.82;95609.03;5052893;28;20041;-53
2023/04/05 00:24:40;;;;;;;0.40;0.40;;;;;;;4.25;70.09;95620.38;5052958;28;20053;-56
2023/04/05 00:27:08;;;;;;;0.30;0.30;;;;;;;4.16;70.02;95617.16;5052835;28;20135;-57
2023/04/05 00:29:35;;;;;;;0.30;0.30;;;;;;;4.11;70.14;95624.19;5052741;28;20045;-56
2023/04/05 00:32:03;;;;;;;0.40;0.40;;;;;;;4.14;70.76;95624.13;5052952;28;20383;-59
2023/04/05 00:34:31;;;;;;;0.63;0.50;;;;;;;4.01;70.61;95625.34;5052869;28;20049;-59
2023/04/05 00:37:00;;;;;;;0.52;0.40;;;;;;;3.90;70.73;95629.06;5052864;28;20578;-60
2023/04/05 00:39:27;;;;;;;0.38;0.38;;;;;;;3.84;70.32;95628.34;5052738;28;20049;-54
2023/04/05 00:41:55;;;;;;;0.50;0.50;;;;;;;3.78;70.67;95631.97;5052863;28;20049;-52
2023/04/05 00:44:22;;;;;;;0.40;0.40;;;;;;;3.81;71.53;95631.00;5054237;28;20139;-56
2023/04/05 00:46:49;;;;;;;0.50;0.50;;;;;;;3.76;71.58;95625.97;5056454;28;20053;-56
2023/04/05 00:49:17;;;;;;;0.45;0.45;;;;;;;3.74;71.78;95638.09;5056377;28;20079;-58
2023/04/05 00:51:46;;;;;;;1.10;0.45;;;;;;;3.74;72.20;95636.38;5056508;28;20102;-57
2023/04/05 00:54:15;;;;;;;11.10;0.60;;;;;;;3.66;72.05;95633.97;5056663;28;20045;-58
2023/04/05 00:56:42;;;;;;;2.95;0.43;;;;;;;3.58;72.17;95635.06;5056474;28;20044;-58
2023/04/05 00:59:10;;;;;;;0.40;0.40;;;;;;;3.54;72.31;95647.19;5056376;28;20132;-54
2023/04/05 01:01:41;;;;;;;0.55;0.40;;;;;;;3.52;72.81;95646.38;5056623;28;20053;-55
2023/04/05 01:04:12;;;;;;;0.43;0.43;;;;;;;3.51;72.92;95648.13;5056407;28;20383;-59
2023/04/05 01:06:59;;;;;;;0.75;0.50;;;;;;;3.46;72.89;95647.38;5056203;28;20139;-54
2023/04/05 01:09:37;;;;;;;0.40;0.40;;;;;;;3.27;73.03;95650.41;5056056;28;20077;-53
2023/04/05 01:12:07;;;;;;;0.75;0.50;;;;;;;3.22;72.64;95656.59;5055712;28;20045;-52
2023/04/05 01:14:44;;;;;;;3.60;0.80;;;;;;;3.15;72.95;95659.31;5056176;28;20080;-58
2023/04/05 01:17:11;;;;;;;1.02;0.80;;;;;;;3.10;72.95;95655.97;5056189;28;20045;-58
2023/04/05 01:19:40;;;;;;;0.63;0.50;;;;;;;2.99;72.80;95666.56;5056099;28;20118;-58
2023/04/05 01:22:29;;;;;;;0.55;0.55;;;;;;;2.94;73.25;95660.63;5056044;28;20474;-60
2023/04/05 01:25:22;;;;;;;2.05;0.85;;;;;;;2.83;73.72;95658.25;5055846;28;20098;-58
2023/04/05 01:28:23;;;;;;;0.82;0.60;;;;;;;2.81;73.74;95672.97;5055675;28;20049;-53
2023/04/05 01:30:54;;;;;;;;;;;;;;;2.75;73.45;95670.50;5056133;28;20498;-55
2023/04/05 01:33:28;;;;;;;0.30;0.30;;;;;;;2.59;73.48;95667.38;5055706;28;19920;-59
2023/04/05 01:36:02;;;;;;;1.45;0.50;;;;;;;2.55;74.37;95671.75;5055726;28;20128;-62
2023/04/05 01:38:32;;;;;;;0.50;0.50;;;;;;;2.52;73.85;95672.69;5055591;28;20056;-59
2023/04/05 01:40:59;;;;;;;0.43;0.43;;;;;;;2.47;74.45;95677.06;5055496;28;20495;-61
2023/04/05 01:43:27;;;;;;;1.13;0.47;;;;;;;2.38;74.19;95678.09;5055446;28;20077;-56
2023/04/05 01:45:56;;;;;;;0.40;0.40;;;;;;;2.30;74.09;95682.56;5055604;28;20146;-56
2023/04/05 01:48:23;;;;;;;0.45;0.45;;;;;;;2.16;74.79;95679.41;5055242;28;20132;-59
2023/04/05 01:50:50;;;;;;;0.30;0.30;;;;;;;2.09;75.18;95678.66;5055458;28;20124;-59
2023/04/05 01:53:17;;;;;;;0.40;0.40;;;;;;;1.96;75.80;95676.28;5055335;28;20088;-61
2023/04/05 01:55:45;;;;;;;0.50;0.50;;;;;;;1.96;76.50;95673.69;5055139;28;20052;-61
2023/04/05 01:58:11;;;;;;;0.55;0.55;;;;;;;2.00;76.32;95675.38;5055365;28;20044;-56
2023/04/05 02:00:39;;;;;;;0.55;0.55;;;;;;;2.00;76.42;95674.50;5055102;28;20473;-59
2023/04/05 02:03:07;;;;;;;0.52;0.52;;;;;;;1.95;76.24;95674.59;5055172;28;20045;-61
2023/04/05 02:05:35;;;;;;;3.78;0.57;;;;;;;1.92;76.54;95674.63;5055266;28;20457;-57
2023/04/05 02:08:02;;;;;;;0.47;0.47;;;;;;;1.85;76.63;95671.31;5054862;28;20064;-56
2023/04/05 02:10:29;;;;;;;0.60;0.60;;;;;;;1.78;76.95;95674.91;5054984;28;20517;-56
2023/04/05 02:12:56;;;;;;;3.72;0.80;;;;;;;1.72;76.98;95670.66;5054637;28;20052;-55
2023/04/05 02:15:23;;;;;;;1.33;1.15;;;;;;;1.66;77.37;95678.53;5054862;28;20072;-58
2023/04/05 02:17:52;;;;;;;0.65;0.65;;;;;;;1.66;77.58;95683.69;5054811;28;20099;-57
2023/04/05 02:20:21;;;;;;;0.50;0.50;;;;;;;1.61;77.58;95681.19;5054841;28;20088;-59
2023/04/05 02:22:50;;;;;;;0.70;0.70;;;;;;;1.63;78.23;95683.72;5054890;28;20056;-59
2023/04/05 02:25:17;;;;;;;2.00;0.88;;;;;;;1.63;78.11;95687.16;5054820;28;20407;-59
2023/04/05 02:27:44;;;;;;;0.68;0.68;;;;;;;1.62;78.22;95685.44;5054747;28;20107;-60
2023/04/05 02:30:13;;;;;;;0.93;0.93;;;;;;;1.63;78.29;95692.31;5054649;28;20486;-63
2023/04/05 02:32:42;;;;;;;1.63;1.10;;;;;;;1.62;78.45;95698.34;5054503;28;20053;-62
2023/04/05 02:35:10;;;;;;;0.65;0.65;;;;;;;1.64;78.67;95706.06;5054610;28;20394;-59
2023/04/05 02:37:39;;;;;;;0.68;0.68;;;;;;;1.61;78.63;95695.78;5054441;28;20045;-56
2023/04/05 02:40:08;;;;;;;5.03;3.63;;;;;;;1.58;78.92;95696.69;5054469;28;20045;-60
2023/04/05 02:42:36;;;;;;;2.15;0.57;;;;;;;1.57;78.73;95699.31;5054403;28;20589;-60
2023/04/05 02:45:04;;;;;;;3.15;0.50;;;;;;;1.56;78.56;95692.44;5054452;28;20041;-58
2023/04/05 02:47:31;;;;;;;0.47;0.47;;;;;;;1.46;78.75;95692.59;5054277;28;20045;-57
2023/04/05 02:49:59;;;;;;;0.57;0.52;;;;;;;1.38;79.39;95700.44;5054119;28;20049;-62
2023/04/05 02:52:26;;;;;;;0.80;0.60;;;;;;;1.39;79.53;95694.38;5054267;28;20095;-56
2023/04/05 02:54:54;;;;;;;1.52;0.70;;;;;;;1.39;79.54;95694.38;5054134;28;20068;-56
2023/04/05 02:57:22;;;;;;;0.60;0.50;;;;;;;1.44;79.95;95694.31;5054193;28;20045;-61
2023/04/05 02:59:49;;;;;;;0.60;0.60;;;;;;;1.48;79.84;95693.41;5054106;28;20107;-53
2023/04/05 03:02:16;;;;;;;10.23;0.68;;;;;;;1.50;79.95;95691.66;5053943;28;20478;-55
2023/04/05 03:04:43;;;;;;;2.42;0.60;;;;;;;1.45;79.71;95698.63;5053897;28;20045;-58
2023/04/05 03:07:17;;;;;;;1.63;0.60;;;;;;;1.51;79.86;95701.09;5053111;28;20081;-58
2023/04/05 03:09:45;;;;;;;0.50;0.50;;;;;;;1.53;79.80;95706.22;5053833;28;20052;-54
2023/04/05 03:12:14;;;;;;;0.63;0.60;;;;;;;1.50;79.74;95707.13;5053531;28;20102;-55
2023/04/05 03:14:41;;;;;;;0.60;0.60;;;;;;;1.48;80.04;95701.13;5053786;28;20103;-59
2023/04/05 03:17:08;;;;;;;0.50;0.50;;;;;;;1.54;80.12;95704.50;5053783;28;20049;-58
2023/04/05 03:19:37;;;;;;;0.52;0.52;;;;;;;1.59;80.40;95706.13;5053709;28;20053;-56
2023/04/05 03:22:04;;;;;;;1.70;0.50;;;;;;;1.62;80.60;95712.94;5053682;28;20047;-56
2023/04/05 03:24:32;;;;;;;0.57;0.57;;;;;;;1.57;80.83;95714.78;5053703;28;20045;-57
2023/04/05 03:27:02;;;;;;;0.50;0.50;;;;;;;1.56;80.37;95707.91;5053449;28;20076;-60
2023/04/05 03:29:30;;;;;;;0.60;0.60;;;;;;;1.57;80.74;95719.91;5053561;28;20056;-64
2023/04/05 03:31:58;;;;;;;0.77;0.77;;;;;;;1.56;80.87;95725.97;5053380;28;20055;-58
2023/04/05 03:34:27;;;;;;;0.60;0.60;;;;;;;1.66;80.84;95724.09;5053465;28;20081;-58
2023/04/05 03:36:55;;;;;;;0.60;0.60;;;;;;;1.73;81.16;95734.28;5053381;28;20486;-59
2023/04/05 03:39:22;;;;;;;0.50;0.50;;;;;;;1.73;81.63;95729.13;5053429;28;20102;-61
2023/04/05 03:41:49;;;;;;;0.47;0.47;;;;;;;1.74;81.47;95728.25;5053396;28;20053;-57
2023/04/05 03:44:17;;;;;;;3.40;0.60;;;;;;;1.74;81.32;95729.97;5053192;28;20530;-60
2023/04/05 03:46:46;;;;;;;0.93;0.65;;;;;;;1.75;81.71;95732.50;5053321;28;20049;-60
2023/04/05 03:49:13;;;;;;;0.50;0.50;;;;;;;1.77;81.70;95742.81;5053348;28;20451;-62
2023/04/05 03:51:40;;;;;;;0.60;0.60;;;;;;;1.80;81.90;95747.09;5053195;28;20045;-59
2023/04/05 03:54:08;;;;;;;0.80;0.80;;;;;;;1.85;81.99;95742.69;5053217;28;20084;-58
2023/04/05 03:56:35;;;;;;;0.70;0.60;;;;;;;1.87;81.56;95746.09;5053121;28;20575;-59
2023/04/05 03:59:03;;;;;;;0.90;0.80;;;;;;;1.83;81.44;95744.44;5053080;28;20544;-56
2023/04/05 04:01:30;;;;;;;0.80;0.80;;;;;;;1.84;81.71;95748.72;5053025;28;20517;-57
2023/04/05 04:03:59;;;;;;;0.70;0.70;;;;;;;1.93;82.60;95751.16;5053016;28;20525;-62
2023/04/05 04:06:29;;;;;;;0.60;0.60;;;;;;;1.96;82.34;95753.66;5053107;28;20075;-58
2023/04/05 04:08:57;;;;;;;0.57;0.57;;;;;;;1.98;82.12;95758.81;5053127;28;20411;-64
2023/04/05 04:11:25;;;;;;;5.75;0.80;;;;;;;2.01;82.09;95762.19;5052694;28;20518;-59
2023/04/05 04:13:52;;;;;;;0.50;0.50;;;;;;;2.01;81.97;95763.91;5052902;28;20418;-59
2023/04/05 04:16:20;;;;;;;0.60;0.60;;;;;;;1.97;82.11;95770.00;5052900;28;20049;-55
2023/04/05 04:18:48;;;;;;;0.50;0.50;;;;;;;2.04;81.84;95760.47;5055042;28;20133;-58
2023/04/05 04:21:18;;;;;;;0.45;0.45;;;;;;;2.13;82.31;95768.88;5057075;28;20095;-62
2023/04/05 04:23:45;;;;;;;0.68;0.68;;;;;;;2.24;82.23;95773.00;5057153;28;20403;-64
2023/04/05 04:26:13;;;;;;;0.50;0.50;;;;;;;2.32;82.50;95772.88;5057018;28;20049;-58
2023/04/05 04:28:42;;;;;;;0.40;0.40;;;;;;;2.44;81.81;95769.22;5056691;28;20045;-57
2023/04/05 04:31:13;;;;;;;0.60;0.60;;;;;;;2.51;82.12;95769.09;5056840;28;20147;-58
2023/04/05 04:33:42;;;;;;;0.50;0.50;;;;;;;2.62;81.49;95773.22;5056794;28;20045;-59
2023/04/05 04:36:12;;;;;;;0.60;0.60;;;;;;;2.74;81.64;95785.03;5056824;28;20486;-57
2023/04/05 04:38:43;;;;;;;0.43;0.43;;;;;;;2.86;81.04;95774.44;5056695;28;20107;-57
2023/04/05 04:41:11;;;;;;;0.95;0.70;;;;;;;2.96;79.95;95774.28;5056703;28;20387;-56
2023/04/05 04:43:42;;;;;;;1.35;0.70;;;;;;;3.26;80.77;95777.13;5056683;28;20445;-58
2023/04/05 04:46:13;;;;;;;0.85;0.70;;;;;;;3.80;78.96;95775.06;5056537;28;20486;-55
2023/04/05 04:48:42;;;;;;;3.00;0.52;;;;;;;4.41;75.14;95776.19;5056352;28;20056;-62
2023/04/05 04:51:09;;;;;;;1.38;0.50;;;;;;;4.91;73.12;95791.28;5056360;28;20041;-61
2023/04/05 04:53:37;;;;;;;2.15;0.60;;;;;;;5.37;71.19;95783.09;5056520;28;20131;-55
2023/04/05 04:56:09;;;;;;;1.70;0.77;;;;;;;5.97;68.72;95789.09;5056501;28;20077;-51
2023/04/05 04:58:36;;;;;;;4.05;0.65;;;;;;;6.18;67.66;95785.81;5056438;28;20131;-58
2023/04/05 05:01:08;;;;;;;0.60;0.60;;;;;;;6.23;66.10;95788.28;5056420;28;20055;-62
2023/04/05 05:03:37;;;;;;;0.50;0.35;;;;;;;6.23;66.20;95788.28;5056299;28;20045;-61
2023/04/05 05:06:05;;;;;;;1.23;0.50;;;;;;;6.64;64.47;95792.13;5056470;28;20045;-58
2023/04/05 05:08:32;;;;;;;0.55;0.40;;;;;;;7.38;61.34;95788.69;5056239;28;20483;-59
2023/04/05 05:10:59;;;;;;;1.38;0.50;;;;;;;7.92;58.71;95787.53;5056239;28;20082;-56
2023/04/05 05:13:28;;;;;;;2.38;0.70;;;;;;;8.61;57.20;95793.44;5016365;28;20085;-60
2023/04/05 05:15:56;;;;;;;1.20;0.70;;;;;;;9.44;55.62;95795.97;5016376;28;20086;-53
2023/04/05 05:18:24;;;;;;;0.60;0.60;;;;;;;10.06;53.56;95797.47;5016326;28;20053;-52
2023/04/05 05:20:51;;;;;;;0.60;0.60;;;;;;;10.10;53.26;95801.66;5016457;28;20046;-57
2023/04/05 05:23:19;;;;;;;1.92;1.23;;;;;;;9.74;53.05;95799.84;5016257;28;20138;-59
2023/04/05 05:25:47;;;;;;;0.80;0.80;;;;;;;9.50;54.10;95804.44;5016197;28;20212;-60
2023/04/05 05:28:15;;;;;;;0.70;0.70;;;;;;;9.20;54.43;95798.78;5015912;28;20060;-60
2023/04/05 05:30:44;;;;;;;1.90;1.45;;;;;;;8.83;55.54;95796.00;5015296;28;20108;-56
2023/04/05 05:33:11;;;;;;;4.28;1.42;;;;;;;8.49;56.81;95801.75;5016130;28;20045;-56
2023/04/05 05:35:38;;;;;;;5.10;1.40;;;;;;;8.41;56.84;95805.53;5016126;28;20049;-58
2023/04/05 05:38:06;;;;;;;4.07;1.90;;;;;;;8.38;57.81;95790.03;5015927;28;20507;-63
2023/04/05 05:40:33;;;;;;;3.40;2.05;;;;;;;8.17;57.53;95800.41;5015921;28;20100;-54
2023/04/05 05:43:00;;;;;;;1.65;1.45;;;;;;;8.20;59.36;95797.69;5015825;28;20054;-58
2023/04/05 05:45:27;;;;;;;2.85;2.25;;;;;;;8.21;58.57;95803.72;5015766;28;20049;-57
2023/04/05 05:47:56;;;;;;;2.35;1.50;;;;;;;8.24;58.49;95797.56;5015749;28;20088;-58
2023/04/05 05:50:24;;;;;;;2.95;1.42;;;;;;;8.65;57.82;95792.44;5015801;28;20508;-57
2023/04/05 05:52:51;;;;;;;1.30;1.00;;;;;;;9.65;54.00;95806.34;5015680;28;20484;-54
2023/04/05 05:55:18;;;;;;;1.10;1.00;;;;;;;9.98;53.46;95816.16;5015780;28;20045;-56
2023/04/05 05:57:45;;;;;;;0.75;0.75;;;;;;;9.59;54.51;95817.06;5015647;28;20050;-54
2023/04/05 06:00:14;;;;;;;2.45;1.00;;;;;;;9.40;55.25;95815.31;5015794;28;20396;-59
2023/04/05 06:02:41;;;;;;;0.93;0.93;;;;;;;9.40;55.86;95812.69;5015678;28;20104;-56
2023/04/05 06:05:10;;;;;;;0.88;0.80;;;;;;;9.83;53.77;95822.06;5015818;28;20104;-61
2023/04/05 06:07:37;;;;;;;0.70;0.70;;;;;;;10.24;52.88;95815.81;5015303;28;20077;-60
2023/04/05 06:10:07;;;;;;;1.30;0.82;;;;;;;10.55;52.15;95824.81;5015318;28;20558;-56
2023/04/05 06:12:35;;;;;;;0.77;0.77;;;;;;;10.98;50.64;95828.78;5040849;28;20057;-55
2023/04/05 06:15:03;;;;;;;0.88;0.88;;;;;;;11.42;49.50;95832.66;5054996;28;20076;-59
2023/04/05 06:17:33;;;;;;;0.75;0.75;;;;;;;11.42;48.23;95837.03;5054863;28;20107;-61
2023/04/05 06:20:01;;;;;;;0.73;0.73;;;;;;;11.43;48.19;95838.72;5054897;28;20049;-62
2023/04/05 06:22:29;;;;;;;0.75;0.73;;;;;;;11.74;48.85;95837.94;5054778;28;20135;-59
2023/04/05 06:24:56;;;;;;;0.98;0.80;;;;;;;11.69;48.07;95832.13;5054691;28;20107;-59
2023/04/05 06:27:23;;;;;;;1.15;0.80;;;;;;;11.85;46.23;95840.00;5054842;28;20490;-57
2023/04/05 06:29:51;;;;;;;0.88;0.80;;;;;;;12.23;44.88;95838.00;5054684;28;20102;-53
2023/04/05 06:32:18;;;;;;;0.80;0.80;;;;;;;12.38;44.38;95839.75;5054631;28;20053;-60
2023/04/05 06:34:47;;;;;;;2.55;0.70;;;;;;;12.74;43.23;95842.16;5054812;28;20118;-59
2023/04/05 06:37:15;;;;;;;1.03;0.90;;;;;;;13.06;42.43;95846.44;5054473;28;20084;-55
2023/04/05 06:39:44;;;;;;;0.60;0.60;;;;;;;13.21;40.96;95847.28;5054480;28;20373;-56
2023/04/05 06:42:11;;;;;;;1.63;0.93;;;;;;;13.29;41.06;95845.06;5053351;28;20475;-60
2023/04/05 06:44:38;;;;;;;0.82;0.60;;;;;;;13.51;43.07;95847.28;5054302;28;20049;-56
2023/04/05 06:47:05;;;;;;;0.75;0.75;;;;;;;13.50;43.57;95850.00;5054233;28;20094;-58
2023/04/05 06:49:33;;;;;;;2.58;0.60;;;;;;;13.56;41.81;95857.50;5054293;28;20139;-62
2023/04/05 06:52:01;;;;;;;0.60;0.60;;;;;;;13.79;42.39;95855.25;5054258;28;20045;-59
2023/04/05 06:54:28;;;;;;;0.73;0.60;;;;;;;14.19;41.07;95854.53;5054259;28;20118;-55
2023/04/05 06:56:58;;;;;;;0.90;0.65;;;;;;;13.93;41.73;95859.63;5054160;28;20045;-59
2023/04/05 06:59:26;;;;;;;0.55;0.55;;;;;;;14.24;41.06;95857.69;5054071;28;20067;-60
2023/04/05 07:01:53;;;;;;;0.80;0.80;;;;;;;14.84;39.48;95854.78;5054085;28;20048;-52
2023/04/05 07:04:21;;;;;;;0.60;0.60;;;;;;;15.26;38.14;95857.28;5053996;28;20453;-55
2023/04/05 07:06:48;;;;;;;0.80;0.80;;;;;;;15.44;36.72;95864.03;5054023;28;20045;-62
2023/04/05 07:09:15;;;;;;;0.77;0.77;;;;;;;15.12;37.38;95862.63;5053893;28;20483;-60
2023/04/05 07:11:43;;;;;;;1.05;0.90;;;;;;;15.01;36.18;95871.25;5053586;28;20049;-59
2023/04/05 07:14:11;;;;;;;0.75;0.70;;;;;;;14.85;37.89;95874.06;5053659;28;20152;-56
2023/04/05 07:16:38;;;;;;;0.60;0.60;;;;;;;14.61;38.68;95864.16;5053835;28;20052;-61
2023/04/05 07:19:06;;;;;;;0.70;0.70;;;;;;;14.58;37.23;95862.59;5053779;28;20045;-63
2023/04/05 07:21:33;;;;;;;0.80;0.80;;;;;;;14.27;40.93;95867.19;5053720;28;20083;-53
2023/04/05 07:24:02;;;;;;;0.50;0.50;;;;;;;13.94;39.44;95869.19;5053552;28;20092;-61
2023/04/05 07:26:33;;;;;;;0.65;0.65;;;;;;;13.55;38.51;95874.22;5053679;28;20084;-62
2023/04/05 07:29:01;;;;;;;0.88;0.80;;;;;;;13.14;41.24;95876.56;5053436;28;20132;-58
2023/04/05 07:31:30;;;;;;;0.57;0.57;;;;;;;12.74;42.86;95866.59;5053554;28;20099;-61
2023/04/05 07:33:59;;;;;;;0.82;0.82;;;;;;;12.31;41.91;95869.03;5053486;28;20049;-56
2023/04/05 07:36:29;;;;;;;0.60;0.60;;;;;;;12.08;43.08;95874.63;5053359;28;20045;-61
2023/04/05 07:38:57;;;;;;;1.20;0.68;;;;;;;11.94;43.54;95870.09;5053449;28;20132;-55
2023/04/05 07:41:25;;;;;;;0.80;0.80;;;;;;;11.98;44.86;95871.63;5053298;28;20049;-56
2023/04/05 07:43:53;;;;;;;0.90;0.90;;;;;;;12.03;44.19;95870.50;5053513;28;20049;-58
2023/04/05 07:46:21;;;;;;;1.00;0.88;;;;;;;12.12;44.89;95867.44;5053439;28;20045;-56
2023/04/05 07:48:49;;;;;;;1.45;0.90;;;;;;;11.99;43.63;95875.09;5053045;28;20136;-57
2023/04/05 07:51:17;;;;;;;0.70;0.70;;;;;;;11.90;42.91;95878.19;5053227;28;20407;-61
2023/04/05 07:53:44;;;;;;;0.63;0.63;;;;;;;11.74;43.71;95879.03;5052824;28;20049;-58
2023/04/05 07:56:13;;;;;;;0.65;0.65;;;;;;;11.83;44.68;95875.91;5053294;28;20204;-57
2023/04/05 07:58:41;;;;;;;0.75;0.60;;;;;;;11.97;45.09;95880.41;5053090;28;20060;-54
2023/04/05 08:01:09;;;;;;;3.40;0.75;;;;;;;11.64;45.48;95883.91;5053086;28;20495;-62
2023/04/05 08:03:38;;;;;;;1.95;0.70;;;;;;;12.01;45.59;95879.31;5052965;28;20135;-57
2023/04/05 08:06:16;;;;;;;2.67;0.90;;;;;;;12.33;44.41;95885.53;5052991;28;20585;-51
2023/04/05 08:08:43;;;;;;;1.85;0.60;;;;;;;12.62;42.23;95886.50;5052839;28;20558;-56
2023/04/05 08:11:11;;;;;;;2.08;0.80;;;;;;;12.72;46.14;95883.34;5052583;28;20092;-50
2023/04/05 08:13:40;;;;;;;0.63;0.63;;;;;;;12.21;42.91;95881.81;5052991;28;20114;-61
2023/04/05 08:16:08;;;;;;;0.65;0.65;;;;;;;12.18;45.87;95882.81;5053021;28;20044;-53
2023/04/05 08:18:35;;;;;;;0.52;0.52;;;;;;;12.19;47.91;95881.06;5053077;28;20049;-60
2023/04/05 08:21:03;;;;;;;1.08;0.80;;;;;;;12.22;46.03;95886.97;5053012;28;20415;-53
2023/04/05 08:23:32;;;;;;;0.70;0.70;;;;;;;12.25;43.80;95886.78;5052975;28;20383;-55
2023/04/05 08:25:59;;;;;;;1.05;0.70;;;;;;;11.96;44.19;95885.75;5052833;28;20048;-56
2023/04/05 08:28:26;;;;;;;2.33;0.98;;;;;;;11.43;45.21;95896.34;5052792;28;20045;-57
2023/04/05 08:30:54;;;;;;;1.52;0.82;;;;;;;11.00;45.08;95895.00;5052905;28;20049;-63
2023/04/05 08:33:21;;;;;;;0.60;0.60;;;;;;;10.83;45.31;95891.44;5052940;28;20056;-59
2023/04/05 08:35:48;;;;;;;0.70;0.70;;;;;;;10.66;46.86;95889.69;5052855;28;20120;-65
2023/04/05 08:38:16;;;;;;;0.60;0.60;;;;;;;10.65;47.69;95892.38;5052742;28;20052;-59
2023/04/05 08:40:45;;;;;;;1.20;1.10;;;;;;;10.67;49.60;95893.13;5052657;28;20044;-64
2023/04/05 08:43:19;;;;;;;1.40;1.30;;;;;;;10.50;48.80;95894.78;5052837;28;20490;-54
2023/04/05 08:45:49;;;;;;;1.20;1.10;;;;;;;10.06;51.88;95901.16;5052664;28;20045;-62
2023/04/05 08:48:17;;;;;;;1.88;1.50;;;;;;;9.75;54.20;95905.19;5052701;28;20049;-57
2023/04/05 08:50:50;;;;;;;1.40;1.30;;;;;;;9.25;52.74;95908.19;5052630;28;20068;-59
2023/04/05 08:53:17;;;;;;;1.38;1.27;;;;;;;9.15;52.94;95904.25;5052654;28;20072;-59
2023/04/05 08:55:50;;;;;;;1.50;1.38;;;;;;;9.07;53.22;95908.06;5052488;28;20045;-60
2023/04/05 08:58:21;;;;;;;1.85;1.60;;;;;;;9.05;54.43;95906.41;5052474;28;20411;-55
2023/04/05 09:00:50;;;;;;;1.25;1.15;;;;;;;8.93;56.12;95910.38;5052747;28;20049;-56
2023/04/05 09:03:20;;;;;;;37.55;18.98;;;;;;;9.05;56.12;95912.47;5052536;28;20094;-57
2023/04/05 09:05:50;;;;;;;1.75;1.50;;;;;;;8.82;57.13;95909.03;5054622;28;20414;-56
2023/04/05 09:08:17;;;;;;;5.40;3.88;;;;;;;8.94;58.08;95915.53;5056229;28;20045;-56
2023/04/05 09:10:46;;;;;;;25.17;14.88;;;;;;;9.04;57.00;95926.44;5056152;28;20053;-60
2023/04/05 09:13:14;;;;;;;2.83;2.30;;;;;;;9.04;56.73;95929.06;5055877;28;20056;-58
2023/04/05 09:15:41;;;;;;;2.13;1.90;;;;;;;8.94;57.49;95922.53;5056055;28;20084;-56
2023/04/05 09:18:09;;;;;;;1.98;1.80;;;;;;;8.92;57.75;95924.31;5055973;28;20482;-60
2023/04/05 09:20:36;;;;;;;3.75;3.35;;;;;;;8.95;57.91;95938.09;5056035;28;20053;-55
2023/04/05 09:23:03;;;;;;;8.05;4.90;;;;;;;9.00;57.63;95931.84;5055937;28;20537;-59
2023/04/05 09:25:38;;;;;;;5.65;3.58;;;;;;;8.93;57.36;95937.31;5055985;28;20498;-55
2023/04/05 09:28:07;;;;;;;2.05;1.80;;;;;;;8.81;56.78;95935.19;5055859;28;20045;-61
2023/04/05 09:30:36;;;;;;;5.00;1.67;;;;;;;8.71;56.02;95932.97;5055725;28;20052;-57
2023/04/05 09:33:04;;;;;;;3.10;2.30;;;;;;;8.70;57.72;95936.47;5055893;28;20072;-61
2023/04/05 09:35:33;;;;;;;2.80;2.10;;;;;;;8.69;57.50;95939.16;5055739;28;20463;-63
2023/04/05 09:38:02;;;;;;;2.30;2.10;;;;;;;8.78;58.26;95937.91;5055574;28;20487;-53
2023/04/05 09:40:43;;;;;;;2.30;2.10;;;;;;;8.87;56.36;95937.56;5055550;28;20049;-57
2023/04/05 09:43:13;;;;;;;2.40;2.20;;;;;;;8.88;57.33;95936.63;5055578;28;20060;-63
2023/04/05 09:45:41;;;;;;;2.30;2.10;;;;;;;8.98;57.11;95937.13;5055422;28;20521;-53
2023/04/05 09:48:09;;;;;;;4.70;2.22;;;;;;;8.93;57.35;95931.22;5055530;28;20132;-55
2023/04/05 09:50:37;;;;;;;2.65;2.10;;;;;;;8.91;57.98;95933.06;5055342;28;20543;-60
2023/04/05 09:53:14;;;;;;;2.63;2.40;;;;;;;8.98;59.22;95930.13;5055465;28;20045;-58
2023/04/05 09:55:43;;;;;;;3.70;3.28;;;;;;;8.95;56.81;95937.25;5055267;28;20078;-62
2023/04/05 09:58:13;;;;;;;2.83;2.42;;;;;;;9.00;57.74;95940.50;5055341;28;20106;-57
2023/04/05 10:00:51;;;;;;;;;;;;;;;9.02;57.69;95933.47;5055585;28;20513;-62
2023/04/05 10:03:19;;;;;;;4.85;3.10;;;;;;;9.00;57.45;95937.06;5055342;28;19921;-58
2023/04/05 10:05:47;;;;;;;4.45;3.40;;;;;;;9.04;57.73;95939.47;5055287;28;20414;-56
2023/04/05 10:08:15;;;;;;;3.13;2.72;;;;;;;9.12;57.84;95941.75;5054994;28;20084;-60
2023/04/05 10:10:47;;;;;;;4.10;2.28;;;;;;;9.04;56.13;95943.84;5055071;28;20490;-56
2023/04/05 10:13:18;;;;;;;2.42;2.05;;;;;;;9.04;56.22;95942.09;5054916;28;20088;-59
2023/04/05 10:15:50;;;;;;;2.80;2.30;;;;;;;9.07;57.26;95941.09;5054651;28;20049;-50
2023/04/05 10:18:21;;;;;;;2.83;2.53;;;;;;;9.14;56.12;95942.53;5054918;28;20127;-56
2023/04/05 10:20:51;;;;;;;2.35;2.10;;;;;;;9.10;57.27;95939.19;5055064;28;20041;-63
2023/04/05 10:23:23;;;;;;;2.33;2.13;;;;;;;9.13;56.45;95937.38;5054703;28;20136;-65
2023/04/05 10:26:02;;;;;;;4.13;2.38;;;;;;;9.09;55.69;95942.72;5054783;28;20060;-62
2023/04/05 10:28:33;;;;;;;3.25;2.92;;;;;;;9.21;56.54;95936.16;5054760;28;20544;-60
2023/04/05 10:31:10;;;;;;;9.73;6.63;;;;;;;9.20;56.81;95946.66;5054480;28;20143;-64
2023/04/05 10:33:44;;;;;;;3.40;2.88;;;;;;;9.27;55.86;95950.69;5054669;28;20079;-60
2023/04/05 10:36:21;;;;;;;3.33;3.03;;;;;;;9.26;54.98;95941.19;5054624;28;20063;-62
2023/04/05 10:39:00;;;;;;;3.72;2.40;;;;;;;9.13;54.81;95940.00;5054465;28;20052;-54
2023/04/05 10:41:27;;;;;;;2.35;2.15;;;;;;;8.99;57.59;95941.41;5054379;28;20136;-57
2023/04/05 10:43:58;;;;;;;3.60;2.55;;;;;;;8.93;58.44;95942.53;5054482;28;20044;-61
2023/04/05 10:46:26;;;;;;;3.40;3.05;;;;;;;8.90;59.35;95944.41;5054352;28;20051;-64
2023/04/05 10:49:00;;;;;;;2.45;2.25;;;;;;;8.92;57.70;95945.19;5054267;28;20087;-65
2023/04/05 10:51:28;;;;;;;2.55;2.35;;;;;;;8.88;58.38;95941.84;5054250;28;20045;-56
2023/04/05 10:53:57;;;;;;;2.63;2.42;;;;;;;8.79;56.08;95952.69;5054285;28;20084;-61
2023/04/05 10:56:25;;;;;;;3.58;3.03;;;;;;;8.81;57.56;95945.63;5054270;28;20098;-59
2023/04/05 10:58:53;;;;;;;3.60;3.30;;;;;;;8.86;58.15;95946.31;5054165;28;20140;-56
2023/04/05 11:01:22;;;;;;;3.92;3.50;;;;;;;8.78;57.81;95949.22;5054143;28;20107;-59
2023/04/05 11:03:50;;;;;;;3.40;3.07;;;;;;;8.75;59.85;95951.94;5053980;28;20055;-63
2023/04/05 11:06:24;;;;;;;4.43;4.03;;;;;;;8.74;58.73;95945.03;5054016;28;20324;-64
2023/04/05 11:08:55;;;;;;;4.43;4.03;;;;;;;8.76;60.51;95950.19;5053914;28;20053;-54
2023/04/05 11:11:26;;;;;;;4.95;4.45;;;;;;;8.69;60.17;95953.03;5053714;28;20049;-60
2023/04/05 11:13:55;;;;;;;3.97;3.65;;;;;;;8.71;59.18;95945.16;5053789;28;20091;-60
2023/04/05 11:16:24;;;;;;;4.90;3.92;;;;;;;8.72;58.82;95958.13;5053747;28;20049;-56
2023/04/05 11:18:53;;;;;;;4.88;4.20;;;;;;;8.80;58.94;95956.97;5053718;28;20091;-58
2023/04/05 11:21:24;;;;;;;4.75;4.30;;;;;;;8.81;59.40;95956.06;5053768;28;20068;-56
2023/04/05 11:24:03;;;;;;;6.03;4.35;;;;;;;8.81;59.78;95949.09;5053604;28;20041;-55
2023/04/05 11:26:56;;;;;;;4.30;3.90;;;;;;;8.85;57.99;95955.88;5053713;28;20517;-56
2023/04/05 11:29:49;;;;;;;4.78;4.05;;;;;;;8.93;57.83;95950.34;5052880;28;20388;-62
2023/04/05 11:32:18;;;;;;;4.22;3.80;;;;;;;8.85;58.71;95953.25;5053641;28;20106;-61
2023/04/05 11:34:45;;;;;;;6.45;3.75;;;;;;;8.71;57.80;95953.84;5053674;28;20045;-54
2023/04/05 11:37:15;;;;;;;4.43;4.03;;;;;;;8.66;57.51;95947.09;5053620;28;20103;-57
2023/04/05 11:39:43;;;;;;;5.03;4.22;;;;;;;8.71;58.94;95952.97;5053543;28;20048;-62
2023/04/05 11:42:12;;;;;;;4.75;4.25;;;;;;;8.64;60.10;95954.13;5053318;28;20095;-60
2023/04/05 11:44:46;;;;;;;5.05;4.28;;;;;;;8.67;61.66;95956.63;5053203;28;20053;-60
2023/04/05 11:47:13;;;;;;;5.22;4.72;;;;;;;8.67;60.58;95951.41;5053218;28;20053;-62
2023/04/05 11:49:42;;;;;;;7.05;4.93;;;;;;;8.68;62.09;95960.91;5053172;28;20053;-54